Terminal Aerodrome Forecast
Issued by NWS Milwaukee/Sullivan, WI

Home | Current Version | Previous Version | Text Only | Print | Product List | Glossary On
Versions: 1 2 3 4 5 6 7 8 9 10 11 12 13 14 15 16 17 18 19 20 21 22 23 24 25 26 27 28
000
FTUS43 KMKX 170834 AAA
TAFMSN
TAF AMD
KMSN 170834Z 1709/1806 19008KT P6SM -SHRA SCT009 OVC012
     FM171100 19007KT P6SM OVC030
     FM171500 22011KT P6SM OVC025
     FM171800 23013G21KT P6SM VCSH BKN030
     FM180000 27013G22KT P6SM BKN025
     FM180400 28010G20KT P6SM BKN025 WS020/29045KT=

USA.gov is the U.S. government's official web portal to all federal, state and local government web resources and services.